sensor_id;sensor_type;location;lat;lon;timestamp;P1;durP1;ratioP1;P2;durP2;ratioP2
37593;SDS011;23441;50.856;6.076;2023-07-13T00:01:14;6.30;;;2.05;;
37593;SDS011;23441;50.856;6.076;2023-07-13T00:03:41;4.55;;;1.50;;
37593;SDS011;23441;50.856;6.076;2023-07-13T00:06:07;7.22;;;2.08;;
37593;SDS011;23441;50.856;6.076;2023-07-13T00:08:33;7.65;;;1.85;;
37593;SDS011;23441;50.856;6.076;2023-07-13T00:11:00;5.63;;;1.50;;
37593;SDS011;23441;50.856;6.076;2023-07-13T00:13:27;6.60;;;1.90;;
37593;SDS011;23441;50.856;6.076;2023-07-13T00:15:53;5.13;;;1.60;;
37593;SDS011;23441;50.856;6.076;2023-07-13T00:18:19;5.95;;;1.65;;
37593;SDS011;23441;50.856;6.076;2023-07-13T00:20:45;5.63;;;1.73;;
37593;SDS011;23441;50.856;6.076;2023-07-13T00:23:11;6.60;;;1.60;;
37593;SDS011;23441;50.856;6.076;2023-07-13T00:25:37;3.50;;;1.80;;
37593;SDS011;23441;50.856;6.076;2023-07-13T00:28:02;5.78;;;1.85;;
37593;SDS011;23441;50.856;6.076;2023-07-13T00:30:28;5.53;;;1.80;;
37593;SDS011;23441;50.856;6.076;2023-07-13T00:32:54;5.60;;;1.80;;
37593;SDS011;23441;50.856;6.076;2023-07-13T00:35:19;5.63;;;1.50;;
37593;SDS011;23441;50.856;6.076;2023-07-13T00:37:45;5.07;;;1.67;;
37593;SDS011;23441;50.856;6.076;2023-07-13T00:40:12;5.40;;;1.77;;
37593;SDS011;23441;50.856;6.076;2023-07-13T00:42:39;7.57;;;1.63;;
37593;SDS011;23441;50.856;6.076;2023-07-13T00:47:33;6.55;;;1.90;;
37593;SDS011;23441;50.856;6.076;2023-07-13T00:49:59;4.68;;;1.63;;
37593;SDS011;23441;50.856;6.076;2023-07-13T00:52:25;5.55;;;1.73;;
37593;SDS011;23441;50.856;6.076;2023-07-13T00:54:51;5.95;;;1.63;;
37593;SDS011;23441;50.856;6.076;2023-07-13T00:57:17;7.57;;;1.90;;
37593;SDS011;23441;50.856;6.076;2023-07-13T00:59:46;3.55;;;1.65;;
37593;SDS011;23441;50.856;6.076;2023-07-13T01:02:15;5.93;;;1.75;;
37593;SDS011;23441;50.856;6.076;2023-07-13T01:04:41;4.47;;;1.90;;
37593;SDS011;23441;50.856;6.076;2023-07-13T01:07:09;6.63;;;2.08;;
37593;SDS011;23441;50.856;6.076;2023-07-13T01:09:35;4.00;;;1.55;;
37593;SDS011;23441;50.856;6.076;2023-07-13T01:12:01;5.05;;;1.60;;
37593;SDS011;23441;50.856;6.076;2023-07-13T01:14:28;6.38;;;2.17;;
37593;SDS011;23441;50.856;6.076;2023-07-13T01:16:53;6.20;;;1.65;;
37593;SDS011;23441;50.856;6.076;2023-07-13T01:22:13;4.43;;;1.60;;
37593;SDS011;23441;50.856;6.076;2023-07-13T01:24:41;6.57;;;1.73;;
37593;SDS011;23441;50.856;6.076;2023-07-13T01:27:09;4.68;;;1.80;;
37593;SDS011;23441;50.856;6.076;2023-07-13T01:29:38;4.97;;;1.70;;
37593;SDS011;23441;50.856;6.076;2023-07-13T01:32:07;4.10;;;1.45;;
37593;SDS011;23441;50.856;6.076;2023-07-13T01:34:34;6.40;;;1.70;;
37593;SDS011;23441;50.856;6.076;2023-07-13T01:37:00;5.70;;;1.95;;
37593;SDS011;23441;50.856;6.076;2023-07-13T01:39:25;3.65;;;1.80;;
37593;SDS011;23441;50.856;6.076;2023-07-13T01:41:51;5.63;;;1.75;;
37593;SDS011;23441;50.856;6.076;2023-07-13T01:44:16;8.45;;;1.60;;
37593;SDS011;23441;50.856;6.076;2023-07-13T01:46:42;10.00;;;2.00;;
37593;SDS011;23441;50.856;6.076;2023-07-13T01:49:07;5.82;;;1.77;;
37593;SDS011;23441;50.856;6.076;2023-07-13T01:51:33;7.82;;;1.98;;
37593;SDS011;23441;50.856;6.076;2023-07-13T01:53:59;5.60;;;1.90;;
37593;SDS011;23441;50.856;6.076;2023-07-13T01:56:24;3.83;;;1.40;;
37593;SDS011;23441;50.856;6.076;2023-07-13T01:58:50;4.40;;;1.60;;
37593;SDS011;23441;50.856;6.076;2023-07-13T02:01:17;2.78;;;1.80;;
37593;SDS011;23441;50.856;6.076;2023-07-13T02:03:43;6.72;;;2.00;;
37593;SDS011;23441;50.856;6.076;2023-07-13T02:06:08;5.45;;;1.50;;
37593;SDS011;23441;50.856;6.076;2023-07-13T02:08:34;6.47;;;1.92;;
37593;SDS011;23441;50.856;6.076;2023-07-13T02:11:00;7.22;;;2.42;;
37593;SDS011;23441;50.856;6.076;2023-07-13T02:13:28;2.97;;;1.77;;
37593;SDS011;23441;50.856;6.076;2023-07-13T02:15:53;4.95;;;1.70;;
37593;SDS011;23441;50.856;6.076;2023-07-13T02:18:19;8.85;;;1.98;;
37593;SDS011;23441;50.856;6.076;2023-07-13T02:20:45;5.57;;;2.17;;
37593;SDS011;23441;50.856;6.076;2023-07-13T02:23:11;3.28;;;1.85;;
37593;SDS011;23441;50.856;6.076;2023-07-13T02:25:37;5.85;;;1.70;;
37593;SDS011;23441;50.856;6.076;2023-07-13T02:28:02;8.43;;;2.10;;
37593;SDS011;23441;50.856;6.076;2023-07-13T02:30:28;3.38;;;1.75;;
37593;SDS011;23441;50.856;6.076;2023-07-13T02:32:55;7.90;;;1.85;;
37593;SDS011;23441;50.856;6.076;2023-07-13T02:35:21;7.63;;;2.38;;
37593;SDS011;23441;50.856;6.076;2023-07-13T02:37:47;5.75;;;1.90;;
37593;SDS011;23441;50.856;6.076;2023-07-13T02:40:13;5.03;;;1.75;;
37593;SDS011;23441;50.856;6.076;2023-07-13T02:42:39;9.40;;;2.00;;
37593;SDS011;23441;50.856;6.076;2023-07-13T02:45:05;9.60;;;2.03;;
37593;SDS011;23441;50.856;6.076;2023-07-13T02:47:33;4.68;;;1.92;;
37593;SDS011;23441;50.856;6.076;2023-07-13T02:49:58;6.75;;;2.05;;
37593;SDS011;23441;50.856;6.076;2023-07-13T02:52:24;4.53;;;2.35;;
37593;SDS011;23441;50.856;6.076;2023-07-13T02:54:50;7.30;;;2.08;;
37593;SDS011;23441;50.856;6.076;2023-07-13T02:57:16;7.28;;;2.35;;
37593;SDS011;23441;50.856;6.076;2023-07-13T02:59:41;2.88;;;1.88;;
37593;SDS011;23441;50.856;6.076;2023-07-13T03:02:07;5.68;;;2.10;;
37593;SDS011;23441;50.856;6.076;2023-07-13T03:04:35;7.82;;;2.70;;
37593;SDS011;23441;50.856;6.076;2023-07-13T03:07:01;10.20;;;2.35;;
37593;SDS011;23441;50.856;6.076;2023-07-13T03:09:26;9.05;;;2.42;;
37593;SDS011;23441;50.856;6.076;2023-07-13T03:11:55;5.78;;;2.33;;
37593;SDS011;23441;50.856;6.076;2023-07-13T03:14:21;6.90;;;1.80;;
37593;SDS011;23441;50.856;6.076;2023-07-13T03:16:47;7.07;;;2.20;;
37593;SDS011;23441;50.856;6.076;2023-07-13T03:19:14;5.32;;;2.17;;
37593;SDS011;23441;50.856;6.076;2023-07-13T03:21:39;8.40;;;2.17;;
37593;SDS011;23441;50.856;6.076;2023-07-13T03:24:05;6.03;;;2.42;;
37593;SDS011;23441;50.856;6.076;2023-07-13T03:26:31;9.43;;;2.40;;
37593;SDS011;23441;50.856;6.076;2023-07-13T03:28:56;6.93;;;2.13;;
37593;SDS011;23441;50.856;6.076;2023-07-13T03:31:24;9.02;;;2.50;;
37593;SDS011;23441;50.856;6.076;2023-07-13T03:33:51;7.70;;;2.50;;
37593;SDS011;23441;50.856;6.076;2023-07-13T03:36:18;9.02;;;2.42;;
37593;SDS011;23441;50.856;6.076;2023-07-13T03:38:49;8.50;;;2.33;;
37593;SDS011;23441;50.856;6.076;2023-07-13T03:41:19;9.48;;;2.45;;
37593;SDS011;23441;50.856;6.076;2023-07-13T03:43:45;8.27;;;2.60;;
37593;SDS011;23441;50.856;6.076;2023-07-13T03:46:13;7.47;;;2.53;;
37593;SDS011;23441;50.856;6.076;2023-07-13T03:48:40;5.03;;;2.15;;
37593;SDS011;23441;50.856;6.076;2023-07-13T03:51:07;8.07;;;2.10;;
37593;SDS011;23441;50.856;6.076;2023-07-13T03:53:34;6.45;;;2.28;;
37593;SDS011;23441;50.856;6.076;2023-07-13T03:56:04;4.97;;;1.90;;
37593;SDS011;23441;50.856;6.076;2023-07-13T03:58:33;9.05;;;2.50;;
37593;SDS011;23441;50.856;6.076;2023-07-13T04:01:02;6.82;;;2.20;;
37593;SDS011;23441;50.856;6.076;2023-07-13T04:03:28;10.70;;;2.35;;
37593;SDS011;23441;50.856;6.076;2023-07-13T04:05:57;7.65;;;2.58;;
37593;SDS011;23441;50.856;6.076;2023-07-13T04:08:28;9.25;;;2.58;;
37593;SDS011;23441;50.856;6.076;2023-07-13T04:10:55;7.90;;;2.45;;
37593;SDS011;23441;50.856;6.076;2023-07-13T04:13:22;7.78;;;2.50;;
37593;SDS011;23441;50.856;6.076;2023-07-13T04:15:48;7.50;;;2.33;;
37593;SDS011;23441;50.856;6.076;2023-07-13T04:18:14;7.20;;;2.50;;
37593;SDS011;23441;50.856;6.076;2023-07-13T04:20:40;8.50;;;2.20;;
37593;SDS011;23441;50.856;6.076;2023-07-13T04:23:05;7.55;;;3.20;;
37593;SDS011;23441;50.856;6.076;2023-07-13T04:25:31;10.23;;;2.58;;
37593;SDS011;23441;50.856;6.076;2023-07-13T04:27:57;4.97;;;2.60;;
37593;SDS011;23441;50.856;6.076;2023-07-13T04:30:22;9.65;;;2.55;;
37593;SDS011;23441;50.856;6.076;2023-07-13T04:32:49;6.55;;;2.22;;
37593;SDS011;23441;50.856;6.076;2023-07-13T04:35:17;9.57;;;2.53;;
37593;SDS011;23441;50.856;6.076;2023-07-13T04:37:45;8.63;;;2.40;;
37593;SDS011;23441;50.856;6.076;2023-07-13T04:40:12;5.63;;;2.40;;
37593;SDS011;23441;50.856;6.076;2023-07-13T04:42:38;7.93;;;2.55;;
37593;SDS011;23441;50.856;6.076;2023-07-13T04:45:04;14.75;;;2.30;;
37593;SDS011;23441;50.856;6.076;2023-07-13T04:47:31;8.85;;;2.38;;
37593;SDS011;23441;50.856;6.076;2023-07-13T04:49:57;12.15;;;2.83;;
37593;SDS011;23441;50.856;6.076;2023-07-13T04:52:23;8.18;;;2.45;;
37593;SDS011;23441;50.856;6.076;2023-07-13T04:54:49;9.07;;;2.38;;
37593;SDS011;23441;50.856;6.076;2023-07-13T04:57:14;6.95;;;2.75;;
37593;SDS011;23441;50.856;6.076;2023-07-13T04:59:41;8.48;;;2.40;;
37593;SDS011;23441;50.856;6.076;2023-07-13T05:02:07;4.32;;;2.25;;
37593;SDS011;23441;50.856;6.076;2023-07-13T05:04:33;7.55;;;2.17;;
37593;SDS011;23441;50.856;6.076;2023-07-13T05:06:59;7.68;;;2.20;;
37593;SDS011;23441;50.856;6.076;2023-07-13T05:09:25;11.27;;;2.42;;
37593;SDS011;23441;50.856;6.076;2023-07-13T05:11:50;9.60;;;2.40;;
37593;SDS011;23441;50.856;6.076;2023-07-13T05:14:16;6.72;;;2.20;;
37593;SDS011;23441;50.856;6.076;2023-07-13T05:16:42;9.10;;;2.83;;
37593;SDS011;23441;50.856;6.076;2023-07-13T05:19:08;7.88;;;1.95;;
37593;SDS011;23441;50.856;6.076;2023-07-13T05:21:33;19.95;;;2.67;;
37593;SDS011;23441;50.856;6.076;2023-07-13T05:23:59;6.63;;;2.28;;
37593;SDS011;23441;50.856;6.076;2023-07-13T05:26:25;9.75;;;2.42;;
37593;SDS011;23441;50.856;6.076;2023-07-13T05:28:50;8.63;;;2.20;;
37593;SDS011;23441;50.856;6.076;2023-07-13T05:31:16;8.80;;;3.03;;
37593;SDS011;23441;50.856;6.076;2023-07-13T05:33:42;6.32;;;2.10;;
37593;SDS011;23441;50.856;6.076;2023-07-13T05:36:07;10.23;;;2.53;;
37593;SDS011;23441;50.856;6.076;2023-07-13T05:38:34;8.38;;;2.83;;
37593;SDS011;23441;50.856;6.076;2023-07-13T05:41:00;9.02;;;2.28;;
37593;SDS011;23441;50.856;6.076;2023-07-13T05:43:25;8.20;;;2.65;;
37593;SDS011;23441;50.856;6.076;2023-07-13T05:45:55;6.55;;;2.35;;
37593;SDS011;23441;50.856;6.076;2023-07-13T05:48:21;14.93;;;2.40;;
37593;SDS011;23441;50.856;6.076;2023-07-13T05:50:47;6.93;;;2.47;;
37593;SDS011;23441;50.856;6.076;2023-07-13T05:53:12;7.43;;;2.10;;
37593;SDS011;23441;50.856;6.076;2023-07-13T05:55:47;7.43;;;2.92;;
37593;SDS011;23441;50.856;6.076;2023-07-13T05:58:15;5.90;;;2.25;;
37593;SDS011;23441;50.856;6.076;2023-07-13T06:00:42;10.18;;;2.70;;
37593;SDS011;23441;50.856;6.076;2023-07-13T06:03:07;8.40;;;2.47;;
37593;SDS011;23441;50.856;6.076;2023-07-13T06:05:34;7.88;;;2.85;;
37593;SDS011;23441;50.856;6.076;2023-07-13T06:08:01;12.77;;;2.63;;
37593;SDS011;23441;50.856;6.076;2023-07-13T06:10:27;11.93;;;2.67;;
37593;SDS011;23441;50.856;6.076;2023-07-13T06:12:53;9.93;;;2.58;;
37593;SDS011;23441;50.856;6.076;2023-07-13T06:15:18;6.40;;;2.42;;
37593;SDS011;23441;50.856;6.076;2023-07-13T06:17:44;4.75;;;2.42;;
37593;SDS011;23441;50.856;6.076;2023-07-13T06:20:10;9.98;;;2.92;;
37593;SDS011;23441;50.856;6.076;2023-07-13T06:22:35;13.52;;;3.35;;
37593;SDS011;23441;50.856;6.076;2023-07-13T06:25:01;11.57;;;3.15;;
37593;SDS011;23441;50.856;6.076;2023-07-13T06:27:27;13.65;;;3.05;;
37593;SDS011;23441;50.856;6.076;2023-07-13T06:29:53;11.30;;;3.17;;
37593;SDS011;23441;50.856;6.076;2023-07-13T06:32:19;11.02;;;3.15;;
37593;SDS011;23441;50.856;6.076;2023-07-13T06:34:45;16.70;;;3.47;;
37593;SDS011;23441;50.856;6.076;2023-07-13T06:37:11;9.18;;;3.00;;
37593;SDS011;23441;50.856;6.076;2023-07-13T06:39:37;11.75;;;2.90;;
37593;SDS011;23441;50.856;6.076;2023-07-13T06:42:02;13.55;;;2.97;;
37593;SDS011;23441;50.856;6.076;2023-07-13T06:44:28;10.60;;;2.80;;
37593;SDS011;23441;50.856;6.076;2023-07-13T06:46:54;12.55;;;3.10;;
37593;SDS011;23441;50.856;6.076;2023-07-13T06:49:20;9.32;;;2.92;;
37593;SDS011;23441;50.856;6.076;2023-07-13T06:51:45;12.80;;;3.67;;
37593;SDS011;23441;50.856;6.076;2023-07-13T06:54:11;11.43;;;3.00;;
37593;SDS011;23441;50.856;6.076;2023-07-13T06:56:38;14.98;;;3.08;;
37593;SDS011;23441;50.856;6.076;2023-07-13T06:59:04;12.30;;;3.20;;
37593;SDS011;23441;50.856;6.076;2023-07-13T07:01:30;13.65;;;2.83;;
37593;SDS011;23441;50.856;6.076;2023-07-13T07:03:55;9.55;;;2.92;;
37593;SDS011;23441;50.856;6.076;2023-07-13T07:06:21;9.52;;;2.95;;
37593;SDS011;23441;50.856;6.076;2023-07-13T07:08:51;7.03;;;2.70;;
37593;SDS011;23441;50.856;6.076;2023-07-13T07:11:18;10.85;;;3.10;;
37593;SDS011;23441;50.856;6.076;2023-07-13T07:13:47;12.13;;;3.33;;
37593;SDS011;23441;50.856;6.076;2023-07-13T07:16:13;14.68;;;3.67;;
37593;SDS011;23441;50.856;6.076;2023-07-13T07:18:39;9.93;;;2.90;;
37593;SDS011;23441;50.856;6.076;2023-07-13T07:21:04;15.40;;;4.07;;
37593;SDS011;23441;50.856;6.076;2023-07-13T07:23:30;11.57;;;2.90;;
37593;SDS011;23441;50.856;6.076;2023-07-13T07:25:56;6.63;;;2.67;;
37593;SDS011;23441;50.856;6.076;2023-07-13T07:28:22;11.27;;;2.72;;
37593;SDS011;23441;50.856;6.076;2023-07-13T07:30:48;13.85;;;3.33;;
37593;SDS011;23441;50.856;6.076;2023-07-13T07:33:17;10.40;;;2.97;;
37593;SDS011;23441;50.856;6.076;2023-07-13T07:35:43;7.25;;;2.90;;
37593;SDS011;23441;50.856;6.076;2023-07-13T07:38:08;12.80;;;2.95;;
37593;SDS011;23441;50.856;6.076;2023-07-13T07:40:37;9.73;;;3.58;;
37593;SDS011;23441;50.856;6.076;2023-07-13T07:43:05;9.30;;;2.97;;
37593;SDS011;23441;50.856;6.076;2023-07-13T07:45:31;14.25;;;3.60;;
37593;SDS011;23441;50.856;6.076;2023-07-13T07:47:57;12.73;;;3.10;;
37593;SDS011;23441;50.856;6.076;2023-07-13T07:50:27;9.45;;;3.03;;
37593;SDS011;23441;50.856;6.076;2023-07-13T07:52:53;9.27;;;3.20;;
37593;SDS011;23441;50.856;6.076;2023-07-13T07:55:21;7.95;;;3.10;;
37593;SDS011;23441;50.856;6.076;2023-07-13T07:57:47;10.10;;;2.90;;
37593;SDS011;23441;50.856;6.076;2023-07-13T08:00:13;6.30;;;3.05;;
37593;SDS011;23441;50.856;6.076;2023-07-13T08:02:40;12.88;;;3.22;;
37593;SDS011;23441;50.856;6.076;2023-07-13T08:05:06;15.07;;;3.38;;
37593;SDS011;23441;50.856;6.076;2023-07-13T08:07:33;8.80;;;3.22;;
37593;SDS011;23441;50.856;6.076;2023-07-13T08:09:59;9.15;;;2.70;;
37593;SDS011;23441;50.856;6.076;2023-07-13T08:12:25;8.90;;;2.75;;
37593;SDS011;23441;50.856;6.076;2023-07-13T08:14:50;10.45;;;2.50;;
37593;SDS011;23441;50.856;6.076;2023-07-13T08:17:19;7.80;;;2.55;;
37593;SDS011;23441;50.856;6.076;2023-07-13T08:19:45;6.25;;;2.20;;
37593;SDS011;23441;50.856;6.076;2023-07-13T08:22:11;15.02;;;3.33;;
37593;SDS011;23441;50.856;6.076;2023-07-13T08:24:37;7.53;;;2.47;;
37593;SDS011;23441;50.856;6.076;2023-07-13T08:27:02;12.63;;;3.08;;
37593;SDS011;23441;50.856;6.076;2023-07-13T08:29:28;10.45;;;2.80;;
37593;SDS011;23441;50.856;6.076;2023-07-13T08:31:57;11.60;;;2.97;;
37593;SDS011;23441;50.856;6.076;2023-07-13T08:34:23;11.98;;;3.20;;
37593;SDS011;23441;50.856;6.076;2023-07-13T08:36:48;10.45;;;2.67;;
37593;SDS011;23441;50.856;6.076;2023-07-13T08:39:14;14.90;;;2.60;;
37593;SDS011;23441;50.856;6.076;2023-07-13T08:41:39;9.50;;;2.90;;
37593;SDS011;23441;50.856;6.076;2023-07-13T08:44:06;8.48;;;3.05;;
37593;SDS011;23441;50.856;6.076;2023-07-13T08:46:41;6.78;;;2.25;;
37593;SDS011;23441;50.856;6.076;2023-07-13T08:49:14;7.95;;;2.53;;
37593;SDS011;23441;50.856;6.076;2023-07-13T08:51:49;10.07;;;2.80;;
37593;SDS011;23441;50.856;6.076;2023-07-13T08:54:27;8.23;;;2.60;;
37593;SDS011;23441;50.856;6.076;2023-07-13T08:56:56;8.05;;;2.60;;
37593;SDS011;23441;50.856;6.076;2023-07-13T08:59:24;7.68;;;2.90;;
37593;SDS011;23441;50.856;6.076;2023-07-13T09:05:01;9.73;;;2.50;;
37593;SDS011;23441;50.856;6.076;2023-07-13T09:10:21;8.90;;;2.60;;
37593;SDS011;23441;50.856;6.076;2023-07-13T09:15:31;5.18;;;2.58;;
37593;SDS011;23441;50.856;6.076;2023-07-13T09:21:12;7.63;;;2.50;;
37593;SDS011;23441;50.856;6.076;2023-07-13T09:23:41;11.25;;;3.08;;
37593;SDS011;23441;50.856;6.076;2023-07-13T09:28:40;7.65;;;3.15;;
37593;SDS011;23441;50.856;6.076;2023-07-13T09:31:28;8.70;;;2.80;;
37593;SDS011;23441;50.856;6.076;2023-07-13T09:34:02;7.30;;;2.40;;
37593;SDS011;23441;50.856;6.076;2023-07-13T09:36:30;9.20;;;3.00;;
37593;SDS011;23441;50.856;6.076;2023-07-13T09:38:59;6.25;;;2.30;;
37593;SDS011;23441;50.856;6.076;2023-07-13T09:44:17;8.30;;;3.03;;
37593;SDS011;23441;50.856;6.076;2023-07-13T09:46:53;7.97;;;2.40;;
37593;SDS011;23441;50.856;6.076;2023-07-13T09:49:26;7.93;;;2.58;;
37593;SDS011;23441;50.856;6.076;2023-07-13T09:51:59;3.75;;;2.17;;
37593;SDS011;23441;50.856;6.076;2023-07-13T09:54:33;8.90;;;2.58;;
37593;SDS011;23441;50.856;6.076;2023-07-13T09:57:00;7.35;;;2.50;;
37593;SDS011;23441;50.856;6.076;2023-07-13T09:59:30;7.75;;;2.63;;
37593;SDS011;23441;50.856;6.076;2023-07-13T10:01:58;15.90;;;3.42;;
37593;SDS011;23441;50.856;6.076;2023-07-13T10:04:30;6.78;;;2.72;;
37593;SDS011;23441;50.856;6.076;2023-07-13T10:07:11;5.47;;;2.47;;
37593;SDS011;23441;50.856;6.076;2023-07-13T10:09:40;9.80;;;3.13;;
37593;SDS011;23441;50.856;6.076;2023-07-13T10:12:14;6.20;;;2.08;;
37593;SDS011;23441;50.856;6.076;2023-07-13T10:14:40;8.55;;;2.83;;
37593;SDS011;23441;50.856;6.076;2023-07-13T10:17:12;12.40;;;2.38;;
37593;SDS011;23441;50.856;6.076;2023-07-13T10:19:39;8.02;;;2.60;;
37593;SDS011;23441;50.856;6.076;2023-07-13T10:22:20;4.45;;;1.95;;
37593;SDS011;23441;50.856;6.076;2023-07-13T10:25:17;9.20;;;2.53;;
37593;SDS011;23441;50.856;6.076;2023-07-13T10:27:47;8.30;;;2.22;;
37593;SDS011;23441;50.856;6.076;2023-07-13T10:30:35;6.35;;;2.22;;
37593;SDS011;23441;50.856;6.076;2023-07-13T10:33:08;4.07;;;2.05;;
37593;SDS011;23441;50.856;6.076;2023-07-13T10:35:36;7.70;;;2.63;;
37593;SDS011;23441;50.856;6.076;2023-07-13T10:38:07;6.32;;;2.15;;
37593;SDS011;23441;50.856;6.076;2023-07-13T10:40:37;7.45;;;2.20;;
37593;SDS011;23441;50.856;6.076;2023-07-13T10:43:09;9.00;;;2.05;;
37593;SDS011;23441;50.856;6.076;2023-07-13T10:45:54;8.27;;;2.40;;
37593;SDS011;23441;50.856;6.076;2023-07-13T10:48:20;4.20;;;1.88;;
37593;SDS011;23441;50.856;6.076;2023-07-13T10:50:49;7.80;;;1.80;;
37593;SDS011;23441;50.856;6.076;2023-07-13T11:00:57;9.85;;;2.30;;
37593;SDS011;23441;50.856;6.076;2023-07-13T11:08:58;7.25;;;2.00;;
37593;SDS011;23441;50.856;6.076;2023-07-13T11:11:45;8.73;;;2.05;;
37593;SDS011;23441;50.856;6.076;2023-07-13T11:16:45;7.15;;;2.00;;
37593;SDS011;23441;50.856;6.076;2023-07-13T11:30:06;6.38;;;2.10;;
37593;SDS011;23441;50.856;6.076;2023-07-13T11:32:33;4.45;;;1.67;;
37593;SDS011;23441;50.856;6.076;2023-07-13T11:35:00;6.15;;;2.00;;
37593;SDS011;23441;50.856;6.076;2023-07-13T11:37:26;4.82;;;1.92;;
37593;SDS011;23441;50.856;6.076;2023-07-13T11:39:53;4.38;;;1.95;;
37593;SDS011;23441;50.856;6.076;2023-07-13T11:42:19;4.43;;;1.63;;
37593;SDS011;23441;50.856;6.076;2023-07-13T11:44:47;5.88;;;1.70;;
37593;SDS011;23441;50.856;6.076;2023-07-13T11:47:21;5.28;;;2.05;;
37593;SDS011;23441;50.856;6.076;2023-07-13T11:49:52;5.97;;;1.80;;
37593;SDS011;23441;50.856;6.076;2023-07-13T11:52:22;4.75;;;1.40;;
37593;SDS011;23441;50.856;6.076;2023-07-13T11:54:54;7.22;;;1.85;;
37593;SDS011;23441;50.856;6.076;2023-07-13T11:59:59;5.18;;;1.75;;
37593;SDS011;23441;50.856;6.076;2023-07-13T12:02:46;8.00;;;1.60;;
37593;SDS011;23441;50.856;6.076;2023-07-13T12:05:15;2.83;;;1.73;;
37593;SDS011;23441;50.856;6.076;2023-07-13T12:07:46;6.30;;;1.90;;
37593;SDS011;23441;50.856;6.076;2023-07-13T12:15:45;6.22;;;1.73;;
37593;SDS011;23441;50.856;6.076;2023-07-13T12:18:15;3.97;;;1.80;;
37593;SDS011;23441;50.856;6.076;2023-07-13T12:20:44;4.18;;;1.70;;
37593;SDS011;23441;50.856;6.076;2023-07-13T12:23:44;9.13;;;2.05;;
37593;SDS011;23441;50.856;6.076;2023-07-13T12:26:05;5.97;;;1.75;;
37593;SDS011;23441;50.856;6.076;2023-07-13T12:28:38;3.83;;;1.55;;
37593;SDS011;23441;50.856;6.076;2023-07-13T12:34:00;5.63;;;1.90;;
37593;SDS011;23441;50.856;6.076;2023-07-13T12:36:31;8.02;;;1.50;;
37593;SDS011;23441;50.856;6.076;2023-07-13T12:39:00;4.53;;;1.75;;
37593;SDS011;23441;50.856;6.076;2023-07-13T12:41:30;6.47;;;1.80;;
37593;SDS011;23441;50.856;6.076;2023-07-13T12:43:57;5.32;;;1.83;;
37593;SDS011;23441;50.856;6.076;2023-07-13T12:46:25;6.32;;;1.60;;
37593;SDS011;23441;50.856;6.076;2023-07-13T12:48:53;10.75;;;1.90;;
37593;SDS011;23441;50.856;6.076;2023-07-13T12:51:22;2.72;;;1.50;;
37593;SDS011;23441;50.856;6.076;2023-07-13T12:53:51;4.05;;;1.60;;
37593;SDS011;23441;50.856;6.076;2023-07-13T12:56:23;4.78;;;2.00;;
37593;SDS011;23441;50.856;6.076;2023-07-13T12:58:57;6.35;;;2.00;;
37593;SDS011;23441;50.856;6.076;2023-07-13T13:01:26;5.75;;;1.50;;
37593;SDS011;23441;50.856;6.076;2023-07-13T13:03:53;3.15;;;1.70;;
37593;SDS011;23441;50.856;6.076;2023-07-13T13:08:52;6.40;;;1.70;;
37593;SDS011;23441;50.856;6.076;2023-07-13T13:11:20;7.65;;;1.98;;
37593;SDS011;23441;50.856;6.076;2023-07-13T13:13:48;4.82;;;1.60;;
37593;SDS011;23441;50.856;6.076;2023-07-13T13:16:31;8.10;;;2.10;;
37593;SDS011;23441;50.856;6.076;2023-07-13T13:19:01;5.97;;;1.60;;
37593;SDS011;23441;50.856;6.076;2023-07-13T13:21:40;4.93;;;1.73;;
37593;SDS011;23441;50.856;6.076;2023-07-13T13:24:14;4.13;;;1.60;;
37593;SDS011;23441;50.856;6.076;2023-07-13T13:26:42;2.53;;;1.40;;
37593;SDS011;23441;50.856;6.076;2023-07-13T13:29:16;6.20;;;1.70;;
37593;SDS011;23441;50.856;6.076;2023-07-13T13:31:46;4.10;;;1.70;;
37593;SDS011;23441;50.856;6.076;2023-07-13T13:34:13;5.30;;;1.60;;
37593;SDS011;23441;50.856;6.076;2023-07-13T13:36:41;4.95;;;1.40;;
37593;SDS011;23441;50.856;6.076;2023-07-13T13:41:45;2.95;;;1.30;;
37593;SDS011;23441;50.856;6.076;2023-07-13T13:44:12;5.45;;;1.50;;
37593;SDS011;23441;50.856;6.076;2023-07-13T13:46:40;4.35;;;1.42;;
37593;SDS011;23441;50.856;6.076;2023-07-13T13:49:10;5.65;;;1.67;;
37593;SDS011;23441;50.856;6.076;2023-07-13T13:51:44;4.30;;;1.40;;
37593;SDS011;23441;50.856;6.076;2023-07-13T13:54:11;8.90;;;1.50;;
37593;SDS011;23441;50.856;6.076;2023-07-13T13:56:38;7.28;;;1.40;;
37593;SDS011;23441;50.856;6.076;2023-07-13T13:59:05;4.78;;;1.25;;
37593;SDS011;23441;50.856;6.076;2023-07-13T14:01:31;4.72;;;1.83;;
37593;SDS011;23441;50.856;6.076;2023-07-13T14:03:57;4.85;;;1.45;;
37593;SDS011;23441;50.856;6.076;2023-07-13T14:06:24;5.25;;;1.30;;
37593;SDS011;23441;50.856;6.076;2023-07-13T14:08:49;5.47;;;1.70;;
37593;SDS011;23441;50.856;6.076;2023-07-13T14:11:17;3.17;;;1.25;;
37593;SDS011;23441;50.856;6.076;2023-07-13T14:13:47;4.72;;;1.60;;
37593;SDS011;23441;50.856;6.076;2023-07-13T14:16:20;5.30;;;1.85;;
37593;SDS011;23441;50.856;6.076;2023-07-13T14:18:48;4.90;;;1.50;;
37593;SDS011;23441;50.856;6.076;2023-07-13T14:21:18;5.93;;;1.90;;
37593;SDS011;23441;50.856;6.076;2023-07-13T14:23:45;4.18;;;1.35;;
37593;SDS011;23441;50.856;6.076;2023-07-13T14:26:19;5.60;;;1.30;;
37593;SDS011;23441;50.856;6.076;2023-07-13T14:28:48;2.78;;;1.38;;
37593;SDS011;23441;50.856;6.076;2023-07-13T14:31:18;3.25;;;1.05;;
37593;SDS011;23441;50.856;6.076;2023-07-13T14:33:47;4.32;;;1.40;;
37593;SDS011;23441;50.856;6.076;2023-07-13T14:36:35;6.68;;;1.75;;
37593;SDS011;23441;50.856;6.076;2023-07-13T14:39:05;3.22;;;1.33;;
37593;SDS011;23441;50.856;6.076;2023-07-13T14:41:52;2.42;;;1.50;;
37593;SDS011;23441;50.856;6.076;2023-07-13T14:44:21;5.50;;;1.38;;
37593;SDS011;23441;50.856;6.076;2023-07-13T14:46:51;3.65;;;1.13;;
37593;SDS011;23441;50.856;6.076;2023-07-13T14:51:57;6.00;;;1.77;;
37593;SDS011;23441;50.856;6.076;2023-07-13T14:54:25;1.75;;;1.10;;
37593;SDS011;23441;50.856;6.076;2023-07-13T14:56:51;3.75;;;1.58;;
37593;SDS011;23441;50.856;6.076;2023-07-13T14:59:16;2.30;;;1.20;;
37593;SDS011;23441;50.856;6.076;2023-07-13T15:01:45;4.25;;;1.48;;
37593;SDS011;23441;50.856;6.076;2023-07-13T15:04:13;4.88;;;1.52;;
37593;SDS011;23441;50.856;6.076;2023-07-13T15:06:58;4.07;;;1.45;;
37593;SDS011;23441;50.856;6.076;2023-07-13T15:09:27;3.33;;;1.50;;
37593;SDS011;23441;50.856;6.076;2023-07-13T15:11:57;5.00;;;1.92;;
37593;SDS011;23441;50.856;6.076;2023-07-13T15:14:24;3.58;;;1.88;;
37593;SDS011;23441;50.856;6.076;2023-07-13T15:16:51;7.95;;;1.85;;
37593;SDS011;23441;50.856;6.076;2023-07-13T15:19:19;3.10;;;1.70;;
37593;SDS011;23441;50.856;6.076;2023-07-13T15:21:46;5.70;;;1.73;;
37593;SDS011;23441;50.856;6.076;2023-07-13T15:24:13;5.72;;;2.20;;
37593;SDS011;23441;50.856;6.076;2023-07-13T15:26:39;6.35;;;2.20;;
37593;SDS011;23441;50.856;6.076;2023-07-13T15:29:05;7.18;;;2.28;;
37593;SDS011;23441;50.856;6.076;2023-07-13T15:31:31;6.90;;;1.50;;
37593;SDS011;23441;50.856;6.076;2023-07-13T15:33:58;4.78;;;1.75;;
37593;SDS011;23441;50.856;6.076;2023-07-13T15:36:25;2.75;;;2.00;;
37593;SDS011;23441;50.856;6.076;2023-07-13T15:38:52;4.47;;;2.10;;
37593;SDS011;23441;50.856;6.076;2023-07-13T15:41:20;3.13;;;2.00;;
37593;SDS011;23441;50.856;6.076;2023-07-13T15:43:50;7.15;;;2.20;;
37593;SDS011;23441;50.856;6.076;2023-07-13T15:46:18;3.13;;;2.00;;
37593;SDS011;23441;50.856;6.076;2023-07-13T15:48:46;8.55;;;2.45;;
37593;SDS011;23441;50.856;6.076;2023-07-13T15:51:15;5.07;;;2.20;;
37593;SDS011;23441;50.856;6.076;2023-07-13T15:53:49;5.22;;;2.10;;
37593;SDS011;23441;50.856;6.076;2023-07-13T15:56:19;5.53;;;1.90;;
37593;SDS011;23441;50.856;6.076;2023-07-13T15:58:47;4.70;;;1.92;;